Terminal Aerodrome Forecast
Issued by NWS

Home | Current Version | Previous Version | Graphics & Text | Print | Product List | Glossary On
Versions: 1 2 3 4 5 6 7 8 9 10 11 12 13 14 15 16 17 18 19 20 21 22 23 24 25 26 27 28 29 30 31 32 33 34 35 36 37 38 39 40 41 42 43 44 45 46 47
670
FTUS43 KLOT 240314 AAA
TAFGYY
TAF AMD
KGYY 240314Z 2403/2424 02005KT 6SM BR VCSH SCT010 OVC050
     FM240900 02008KT 4SM BR VCSH SCT003 OVC007
     FM241500 03010KT P6SM VCSH SCT009 BKN015
     FM241800 01012G20KT P6SM SCT009 SCT020 BKN090=

USA.gov is the U.S. government's official web portal to all federal, state and local government web resources and services.